createdAt,value
2023-05-18T00:03:35.478Z,97.35981338073714
2023-05-18T00:06:35.896Z,97.7360967217581
2023-05-18T00:09:32.468Z,97.24851592788883
2023-05-18T00:12:29.020Z,97.62454453452843
2023-05-18T00:15:24.591Z,98.22223565116919
2023-05-18T00:18:25.117Z,98.30976408170883
2023-05-18T00:21:22.686Z,98.76578857321208
2023-05-18T00:24:21.220Z,98.26868289358737
2023-05-18T00:27:17.780Z,98.00956873408977
2023-05-18T00:30:14.368Z,97.92716243589054
2023-05-18T00:33:09.979Z,98.42106625678186
2023-05-18T00:36:06.481Z,97.87436076026948
2023-05-18T00:39:04.016Z,97.56084906161888
2023-05-18T00:42:00.575Z,98.17222538736976
2023-05-18T00:44:56.217Z,98.56320983982943
2023-05-18T00:47:53.751Z,98.74420939365844
2023-05-18T00:50:51.284Z,99.35163397254168
2023-05-18T00:53:47.843Z,99.24121958230873
2023-05-18T00:56:46.381Z,99.37093228824045
2023-05-18T00:59:42.943Z,99.38865887043316
2023-05-18T01:02:44.536Z,99.56016827881741
2023-05-18T01:05:41.055Z,99.83098929624806
2023-05-18T01:08:37.633Z,100
2023-05-18T01:11:44.148Z,100
2023-05-18T01:14:49.762Z,100
2023-05-18T01:18:00.291Z,100
2023-05-18T01:24:25.250Z,100
2023-05-18T01:27:24.806Z,99.61141918909767
2023-05-18T01:30:20.357Z,99.59180771777848
2023-05-18T01:33:17.868Z,99.15625708539943
2023-05-18T01:36:19.431Z,99.66578123359393
2023-05-18T01:39:17.001Z,100
2023-05-18T01:42:19.550Z,100
2023-05-18T01:45:22.091Z,99.89720015637464
2023-05-18T01:48:21.665Z,99.89575378768001
2023-05-18T01:51:21.221Z,100
2023-05-18T01:54:22.747Z,99.34290289752667
2023-05-18T01:57:21.354Z,99.84978963819928
2023-05-18T02:00:18.890Z,100
2023-05-18T02:03:14.568Z,100
2023-05-18T02:06:10.993Z,99.9171244999505
2023-05-18T02:09:06.505Z,100
2023-05-18T02:12:02.095Z,99.92257219140673
2023-05-18T02:14:59.664Z,100
2023-05-18T02:17:58.445Z,100
2023-05-18T02:20:58.792Z,100
2023-05-18T02:23:54.353Z,100
2023-05-18T02:26:50.889Z,100
2023-05-18T02:29:46.418Z,100
2023-05-18T02:32:42.002Z,100
2023-05-18T02:35:40.548Z,100
2023-05-18T02:38:38.136Z,100
2023-05-18T02:41:33.658Z,100
2023-05-18T02:44:29.256Z,100
2023-05-18T02:47:24.792Z,100
2023-05-18T02:50:20.348Z,100
2023-05-18T02:53:16.936Z,100
2023-05-18T02:56:12.460Z,100
2023-05-18T02:59:09.133Z,100
2023-05-18T03:02:06.617Z,100
2023-05-18T03:05:05.126Z,100
2023-05-18T03:08:01.711Z,100
2023-05-18T03:10:58.275Z,100
2023-05-18T03:13:54.852Z,100
2023-05-18T03:16:54.584Z,100
2023-05-18T03:19:50.949Z,100
2023-05-18T03:22:46.498Z,100
2023-05-18T03:25:43.077Z,99.79252275990211
2023-05-18T03:28:38.638Z,100
2023-05-18T03:31:34.285Z,100
2023-05-18T03:34:29.720Z,100
2023-05-18T03:37:26.344Z,100
2023-05-18T03:40:21.840Z,100
2023-05-18T03:43:17.430Z,100
2023-05-18T03:46:13.059Z,100
2023-05-18T03:49:08.577Z,100
2023-05-18T03:52:05.102Z,100
2023-05-18T03:55:01.671Z,100
2023-05-18T03:58:00.218Z,100
2023-05-18T04:00:55.760Z,100
2023-05-18T04:03:56.635Z,100
2023-05-18T04:06:53.869Z,100
2023-05-18T04:09:49.427Z,100
2023-05-18T04:15:51.552Z,100
2023-05-18T04:18:49.157Z,99.78271779221373
2023-05-18T04:21:47.670Z,98.8220089776393
2023-05-18T04:24:47.234Z,99.46674172252574
2023-05-18T04:27:44.775Z,100
2023-05-18T04:30:42.328Z,98.52106948483724
2023-05-18T04:33:38.882Z,96.11307331120084
2023-05-18T04:36:40.473Z,95.237157651754
2023-05-18T04:39:38.997Z,95.30319522660355
2023-05-18T04:42:35.539Z,96.13067708342481
2023-05-18T04:45:34.365Z,96.83425471164618
2023-05-18T04:48:30.652Z,95.65731703464569
2023-05-18T04:51:27.271Z,95.6224149764542
2023-05-18T04:54:23.757Z,94.31560245176252
2023-05-18T04:57:19.345Z,94.88148807945696
2023-05-18T05:00:19.901Z,95.03561491146274
2023-05-18T05:03:15.441Z,94.20925025956741
2023-05-18T05:06:11.021Z,94.35216562499708
2023-05-18T05:09:06.563Z,94.9444916077864
2023-05-18T05:12:02.152Z,94.06182088474958
2023-05-18T05:14:57.672Z,94.05581687729253
2023-05-18T05:17:54.218Z,94.46026130412426
2023-05-18T05:20:50.804Z,94.34426796248594
2023-05-18T05:23:46.393Z,94.4354249145408
2023-05-18T05:26:41.970Z,92.75817321377673
2023-05-18T05:29:39.478Z,93.52242990866449
2023-05-18T05:32:36.308Z,93.23141591969201
2023-05-18T05:35:33.803Z,92.09754329942872
2023-05-18T05:38:29.135Z,91.41984985281633
2023-05-18T05:41:24.710Z,90.16780401368582
2023-05-18T05:44:20.423Z,90.0728327601015
2023-05-18T05:47:15.914Z,89.98845063160303
2023-05-18T05:50:12.380Z,89.53071380440495
2023-05-18T05:53:08.991Z,88.98189949535391
2023-05-18T05:56:04.522Z,96.00556999998196
2023-05-18T05:59:01.110Z,98.10076561054039
2023-05-18T06:01:57.667Z,91.01690357462004
2023-05-18T06:04:53.202Z,92.96407963182708
2023-05-18T06:07:49.745Z,92.58499595955938
2023-05-18T06:10:45.319Z,91.75266405848355
2023-05-18T06:13:40.870Z,91.94497574201381
2023-05-18T06:16:36.478Z,87.18604503667889
2023-05-18T06:19:33.013Z,89.03899855688303
2023-05-18T06:22:28.594Z,85.6901413537462
2023-05-18T06:25:24.150Z,85.66882610915279
2023-05-18T06:28:19.682Z,85.325325095082
2023-05-18T06:31:18.260Z,85.71634255814003
2023-05-18T06:34:13.774Z,86.28919131277095
2023-05-18T06:37:11.370Z,86.53032820969503
2023-05-18T06:40:07.932Z,86.59505626842956
2023-05-18T06:43:04.491Z,86.77693516020314
2023-05-18T06:46:00.079Z,87.13909738114428
2023-05-18T06:48:58.595Z,85.84250355129456
2023-05-18T06:51:54.186Z,86.18968539160842
2023-05-18T06:54:50.729Z,86.6367996809096
2023-05-18T06:57:46.312Z,86.18559482170009
2023-05-18T07:00:43.820Z,87.05828534850373
2023-05-18T07:03:39.380Z,86.50897578266004
2023-05-18T07:06:35.940Z,86.90694098726013
2023-05-18T07:09:31.527Z,86.6590043104064
2023-05-18T07:12:28.089Z,86.9625773807261
2023-05-18T07:15:25.628Z,86.85702177559818
2023-05-18T07:18:21.203Z,86.42808468946986
2023-05-18T07:21:16.715Z,85.07888800238267
2023-05-18T07:24:12.355Z,85.61990261576528
2023-05-18T07:27:07.878Z,85.51236432666583
2023-05-18T07:30:05.477Z,85.69592116131015
2023-05-18T07:33:02.125Z,86.26751808443619
2023-05-18T07:35:58.558Z,86.71669475571036
2023-05-18T07:38:55.163Z,83.86237258342122
2023-05-18T07:41:50.671Z,84.73401440583125
2023-05-18T07:44:48.232Z,83.75631671617242
2023-05-18T07:47:43.920Z,83.96066734884411
2023-05-18T07:50:41.378Z,84.09124465822087
2023-05-18T07:53:37.932Z,85.16999767483927
2023-05-18T07:56:35.520Z,83.32272754471344
2023-05-18T07:59:33.147Z,84.46048270121038
2023-05-18T08:02:33.716Z,83.56163447451922
2023-05-18T08:05:29.279Z,83.3065727701291
2023-05-18T08:08:24.790Z,83.08174564324453
2023-05-18T08:11:21.334Z,82.90561690543204
2023-05-18T08:14:17.838Z,81.71122451521083
2023-05-18T08:17:13.507Z,81.93269713584253
2023-05-18T08:20:09.940Z,81.11485230576876
2023-05-18T08:23:05.506Z,82.32439273938472
2023-05-18T08:26:03.025Z,81.03141189180147
2023-05-18T08:28:58.578Z,79.02004587712392
2023-05-18T08:31:54.231Z,80.314956611241
2023-05-18T08:34:50.720Z,79.5159734440608
2023-05-18T08:37:47.300Z,79.98297527239814
2023-05-18T08:40:46.841Z,79.45536848593747
2023-05-18T08:43:49.389Z,79.63543411658993
2023-05-18T08:46:50.927Z,78.87705641076055
2023-05-18T08:49:50.495Z,80.51909438314931
2023-05-18T08:52:52.053Z,79.81373382570652
2023-05-18T08:55:53.568Z,80.63183869304174
2023-05-18T08:58:54.281Z,78.58870809103483
2023-05-18T09:01:50.748Z,81.04310826714871
2023-05-18T09:04:48.259Z,80.38843099854299
2023-05-18T09:07:45.816Z,76.49550749014534
2023-05-18T09:10:43.410Z,79.34156981108544
2023-05-18T09:13:39.948Z,77.62200897718799
2023-05-18T09:16:35.592Z,77.65529006737637
2023-05-18T09:19:31.040Z,78.03111692445287
2023-05-18T09:22:27.600Z,76.82284056906029
2023-05-18T09:25:24.146Z,77.64039168168893
2023-05-18T09:28:25.684Z,74.9975221519124
2023-05-18T09:31:24.401Z,75.32990294772208
2023-05-18T09:34:20.819Z,74.7554096355796
2023-05-18T09:37:21.361Z,73.84797041488837
2023-05-18T09:40:18.929Z,72.14652923564434
2023-05-18T09:43:16.470Z,71.3640588970277
2023-05-18T09:46:15.064Z,71.46350701135181
2023-05-18T09:49:19.562Z,72.63544885927291
2023-05-18T09:52:15.095Z,72.26551396816494
2023-05-18T09:55:12.725Z,73.16056175307088
2023-05-18T09:58:12.230Z,68.73617059376454
2023-05-18T10:01:10.838Z,68.29014432427857
2023-05-18T10:04:09.346Z,65.89750852458201
2023-05-18T10:07:11.893Z,66.33951355977875
2023-05-18T10:13:14.981Z,66.79966670389432
2023-05-18T10:16:16.582Z,67.45713358581985
2023-05-18T10:19:13.163Z,67.70609307207424
2023-05-18T10:22:10.674Z,68.86859996860625
2023-05-18T10:25:10.160Z,66.8743537902492
2023-05-18T10:28:07.749Z,66.69380587073478
2023-05-18T10:31:06.345Z,66.77875858557094
2023-05-18T10:34:03.905Z,65.0475715156621
2023-05-18T10:37:04.414Z,66.6945638218533
2023-05-18T10:40:01.983Z,64.12438987008248
2023-05-18T10:42:58.558Z,65.63832782729348
2023-05-18T10:45:55.090Z,62.58241940868874
2023-05-18T10:48:52.668Z,59.49050682657074
2023-05-18T10:51:49.177Z,59.96328488906335
2023-05-18T10:54:45.783Z,59.32000867803045
2023-05-18T10:57:46.267Z,57.35332426735062
2023-05-18T11:00:44.862Z,56.9317055209542
2023-05-18T11:03:44.379Z,56.61669731145309
2023-05-18T11:06:41.973Z,57.21736639855314
2023-05-18T11:09:40.489Z,57.28284108816108
2023-05-18T11:12:41.059Z,58.641316378985096
2023-05-18T11:15:47.620Z,60.43484068684843
2023-05-18T11:18:46.178Z,63.129870837527385
2023-05-18T11:21:51.702Z,60.92967310305338
2023-05-18T11:24:50.292Z,62.415051631507836
2023-05-18T11:27:47.789Z,60.73170718066046
2023-05-18T11:30:51.376Z,62.63121988388959
2023-05-18T11:33:48.970Z,59.727030239645785
2023-05-18T11:36:47.449Z,60.8213232127676
2023-05-18T11:40:00.153Z,59.36619333808438
2023-05-18T11:42:58.533Z,60.81918382251772
2023-05-18T11:45:58.907Z,60.89917113783074
2023-05-18T11:48:55.724Z,59.41247811554701
2023-05-18T11:51:57.139Z,58.82858655967224
2023-05-18T11:54:56.753Z,57.36870106732068
2023-05-18T11:57:56.302Z,57.85092624164843
2023-05-18T12:00:54.836Z,57.28647488839491
2023-05-18T12:03:56.445Z,56.754245644430966
2023-05-18T12:06:54.926Z,60.308223260842084
2023-05-18T12:09:52.508Z,61.78959534749449
2023-05-18T12:12:52.060Z,57.54951745552373
2023-05-18T12:15:48.626Z,53.640556878112506
2023-05-18T12:18:49.249Z,54.813995076290226
2023-05-18T12:21:45.693Z,54.068077728505294
2023-05-18T12:24:42.424Z,56.91671443950432
2023-05-18T12:27:39.843Z,53.2508735467536
2023-05-18T12:30:36.705Z,56.30932051585325
2023-05-18T12:33:34.946Z,53.33861682548582
2023-05-18T12:36:31.514Z,51.624230355025404
2023-05-18T12:39:28.777Z,50.55774114227095
2023-05-18T12:42:25.652Z,49.938781603711625
2023-05-18T12:45:23.169Z,48.19349664785021
2023-05-18T12:48:18.808Z,49.25400688317499
2023-05-18T12:51:19.288Z,54.13024027875235
2023-05-18T12:54:15.843Z,53.538190346323844
2023-05-18T12:57:26.390Z,56.0082258096207
2023-05-18T13:00:22.927Z,53.16560558477146
2023-05-18T13:03:19.611Z,53.75870082654891
2023-05-18T13:06:18.042Z,52.64056566808554
2023-05-18T13:09:14.624Z,50.19270304878561
2023-05-18T13:12:12.144Z,50.991912395543046
2023-05-18T13:15:11.924Z,51.28099010940193
2023-05-18T13:18:10.346Z,53.011887774687395
2023-05-18T13:21:06.805Z,50.303363632272834
2023-05-18T13:24:03.400Z,48.785685479753106
2023-05-18T13:26:58.919Z,49.545614821581914
2023-05-18T13:29:58.508Z,46.27348760369806
2023-05-18T13:32:54.068Z,45.82999170554102
2023-05-18T13:35:50.627Z,48.6772546899929
2023-05-18T13:38:46.170Z,47.855928865917456
2023-05-18T13:41:43.751Z,46.672385324928236
2023-05-18T13:44:39.310Z,48.82364486302526
2023-05-18T13:47:34.901Z,49.04331227655698
2023-05-18T13:50:30.588Z,47.147941071107546
2023-05-18T13:53:26.981Z,47.71158077696554
2023-05-18T13:56:23.574Z,46.98766560088519
2023-05-18T13:59:19.129Z,48.16233171192635
2023-05-18T14:02:15.665Z,49.33229711517647
2023-05-18T14:05:12.211Z,48.39535195297073
2023-05-18T14:08:07.815Z,48.79607656458957
2023-05-18T14:11:03.343Z,49.89970098289831
2023-05-18T14:13:58.898Z,51.89554614156197
2023-05-18T14:16:54.504Z,51.304884566881846
2023-05-18T14:19:49.996Z,52.48310082996331
2023-05-18T14:22:47.604Z,54.954810412266475
2023-05-18T14:25:45.144Z,55.44837031857224
2023-05-18T14:28:41.697Z,56.605638653663924
2023-05-18T14:31:37.352Z,56.55739954980075
2023-05-18T14:34:32.797Z,57.87631222784426
2023-05-18T14:37:28.415Z,59.295235404724416
2023-05-18T14:40:23.947Z,60.313816505281366
2023-05-18T14:43:19.529Z,62.10264228360937
2023-05-18T14:46:15.138Z,60.70240962711233
2023-05-18T14:49:10.662Z,61.93907701075534
2023-05-18T14:52:07.177Z,60.98508648602353
2023-05-18T14:55:02.778Z,61.18958054206855
2023-05-18T14:57:58.333Z,60.5588866726377
2023-05-18T15:00:56.848Z,58.68178477190013
2023-05-18T15:03:52.495Z,59.580738408730674
2023-05-18T15:06:48.027Z,60.95315247501235
2023-05-18T15:09:43.598Z,60.16893019934464
2023-05-18T15:12:39.066Z,60.93233963325735
2023-05-18T15:15:35.688Z,60.66412162687277
2023-05-18T15:18:31.253Z,61.324081414230264
2023-05-18T15:21:26.760Z,60.71805758928001
2023-05-18T15:24:24.338Z,61.65883924090559
2023-05-18T15:27:20.895Z,62.16451561466837
2023-05-18T15:30:18.484Z,62.86451051472539
2023-05-18T15:33:14.121Z,62.6465016068694
2023-05-18T15:36:10.583Z,62.1254408368879
2023-05-18T15:39:06.161Z,62.13021961089335
2023-05-18T15:42:05.659Z,62.86916137778961
2023-05-18T15:45:03.271Z,63.38726859798997
2023-05-18T15:47:58.846Z,63.56866623553091
2023-05-18T15:50:54.341Z,64.11236017128326
2023-05-18T15:53:49.919Z,64.72404009481119
2023-05-18T15:56:45.529Z,63.96644853314896
2023-05-18T15:59:41.061Z,64.69046979902365
2023-05-18T16:02:36.724Z,65.11574318867571
2023-05-18T16:05:32.187Z,66.15952891842218
2023-05-18T16:08:27.732Z,66.88061708593123
2023-05-18T16:11:23.286Z,67.79961736767213
2023-05-18T16:14:21.861Z,67.43330873871801
2023-05-18T16:17:18.462Z,68.28207517106745
2023-05-18T16:20:16.994Z,68.07635734622517
2023-05-18T16:23:12.534Z,67.90403145537101
2023-05-18T16:26:08.068Z,68.25039519702474
2023-05-18T16:29:04.690Z,68.09977465712703
2023-05-18T16:32:00.305Z,68.64418552348044
2023-05-18T16:34:55.773Z,68.84207628035236
2023-05-18T16:37:51.357Z,69.7128451427069
2023-05-18T16:40:46.877Z,69.73017146736738
2023-05-18T16:43:43.475Z,70.15735474440261
2023-05-18T16:46:39.046Z,71.41886487030494
2023-05-18T16:48:58.691Z,70.42161401815962
2023-05-18T16:51:54.236Z,70.50259030111219
2023-05-18T16:54:49.788Z,70.50413411111259
2023-05-18T16:57:45.341Z,72.06440748977772
2023-05-18T17:00:42.909Z,72.38718307899903
2023-05-18T17:03:41.580Z,73.22413567327425
2023-05-18T17:06:39.027Z,73.85789444297893
2023-05-18T17:09:34.585Z,74.98243900101043
2023-05-18T17:12:31.139Z,75.37429571730287
2023-05-18T17:15:26.745Z,76.6789062393076
2023-05-18T17:18:23.327Z,76.84896441932746
2023-05-18T17:21:18.805Z,77.11925314568296
2023-05-18T17:24:19.360Z,77.5358189848566
2023-05-18T17:27:20.942Z,78.33114637471074
2023-05-18T17:30:17.528Z,78.86667295879559
2023-05-18T17:33:13.049Z,79.67318510928267
2023-05-18T17:36:14.599Z,79.83768843250544
2023-05-18T17:39:12.149Z,79.38925476557702
2023-05-18T17:42:09.682Z,81.13529826855164
2023-05-18T17:45:11.268Z,80.84373722822693
2023-05-18T17:48:06.838Z,81.58698105111897
2023-05-18T17:51:03.380Z,81.10834263491297
2023-05-18T17:53:58.999Z,80.95614790639718
2023-05-18T17:56:56.495Z,80.8487904570641
2023-05-18T17:59:56.154Z,80.87696656280588
2023-05-18T18:02:56.641Z,81.81004005513027
2023-05-18T18:05:57.135Z,81.91518716719769
2023-05-18T18:08:59.727Z,81.96957886475018
2023-05-18T18:12:01.261Z,82.19617549334846
2023-05-18T18:14:56.783Z,81.67994074687913
2023-05-18T18:17:56.465Z,81.86002905850901
2023-05-18T18:20:56.898Z,82.8853017110281
2023-05-18T18:23:57.497Z,83.53121665257977
2023-05-18T18:26:55.015Z,82.996675791268
2023-05-18T18:29:51.562Z,82.5730826614362
2023-05-18T18:32:49.210Z,82.97957409404134
2023-05-18T18:35:45.706Z,83.17225204996693
2023-05-18T18:38:44.192Z,82.8247199894664
2023-05-18T18:41:41.804Z,83.21095660685225
2023-05-18T18:44:37.352Z,83.36820844079152
2023-05-18T18:47:32.912Z,83.28669331979629
2023-05-18T18:50:28.551Z,83.4080529139691
2023-05-18T18:53:24.057Z,83.71259464800805
2023-05-18T18:56:20.777Z,83.57155726049369
2023-05-18T18:59:18.135Z,84.0634876828289
2023-05-18T19:02:14.741Z,84.75749310450009
2023-05-18T19:05:10.280Z,84.59521811120028
2023-05-18T19:08:08.837Z,84.03722710393525
2023-05-18T19:11:05.368Z,84.56120490571061
2023-05-18T19:14:00.956Z,85.16386109983544
2023-05-18T19:16:57.498Z,85.1501349557457
2023-05-18T19:19:53.045Z,86.35247954609903
2023-05-18T19:22:48.616Z,88.74208577540203
2023-05-18T19:25:46.193Z,87.9782443964039
2023-05-18T19:28:41.774Z,89.01380742245604
2023-05-18T19:31:41.301Z,88.57850260864937
2023-05-18T19:34:37.839Z,87.18958503123868
2023-05-18T19:37:33.579Z,87.37879936134674
2023-05-18T19:40:28.975Z,87.49534397538135
2023-05-18T19:43:24.532Z,87.17827353994524
2023-05-18T19:46:22.166Z,87.33421750074417
2023-05-18T19:49:17.667Z,86.72056781671041
2023-05-18T19:52:15.216Z,86.40046353412028
2023-05-18T19:55:10.768Z,87.23155114313859
2023-05-18T19:58:06.334Z,87.73297256210151
2023-05-18T20:01:02.927Z,88.21283162606903
2023-05-18T20:03:59.480Z,89.03433660916359
2023-05-18T20:06:55.990Z,89.12421582823114
2023-05-18T20:09:54.603Z,89.2102976467488
2023-05-18T20:12:52.166Z,88.72586386771758
2023-05-18T20:15:49.682Z,89.23408366390744
2023-05-18T20:18:46.286Z,90.50318325528019
2023-05-18T20:21:43.805Z,92.44863694889943
2023-05-18T20:24:43.438Z,92.73232800615449
2023-05-18T20:27:38.919Z,93.65654310136203
2023-05-18T20:30:34.523Z,94.32200770335082
2023-05-18T20:33:34.052Z,95.30354772008712
2023-05-18T20:36:32.579Z,96.00783329741759
2023-05-18T20:39:29.203Z,95.80473436646653
2023-05-18T20:42:29.664Z,95.01601980308517
2023-05-18T20:45:26.254Z,94.95038843433551
2023-05-18T20:48:25.775Z,96.28588088016615
2023-05-18T20:51:22.869Z,97.04721481366163
2023-05-18T20:54:20.911Z,97.35791512980116
2023-05-18T20:57:16.468Z,97.56290136380538
2023-05-18T21:00:13.093Z,96.68164236375925
2023-05-18T21:03:08.670Z,94.53688488550023
2023-05-18T21:06:06.150Z,94.0804949041274
2023-05-18T21:09:01.964Z,94.06254163059629
2023-05-18T21:11:57.275Z,92.33637048657431
2023-05-18T21:14:52.822Z,91.71752053698866
2023-05-18T21:17:48.452Z,91.6866293497989
2023-05-18T21:20:44.945Z,90.9898101224797
2023-05-18T21:23:40.514Z,93.40472692673126
2023-05-18T21:26:36.086Z,93.51253394710253
2023-05-18T21:29:31.630Z,93.67525782149964
2023-05-18T21:32:27.287Z,93.48451740940024
2023-05-18T21:35:22.804Z,92.87651036421111
2023-05-18T21:38:18.327Z,91.74770969826328
2023-05-18T21:41:13.896Z,91.51020061821345
2023-05-18T21:44:10.467Z,91.93708317559994
2023-05-18T21:47:07.007Z,92.27074172097402
2023-05-18T21:50:04.585Z,92.777246235978
2023-05-18T21:53:02.109Z,91.72779991539144
2023-05-18T21:55:57.670Z,91.63859261899218
2023-05-18T21:58:54.219Z,92.87855357202982
2023-05-18T22:01:52.831Z,93.97627572094676
2023-05-18T22:04:48.324Z,93.36805178577032
2023-05-18T22:07:45.917Z,93.406733424586
2023-05-18T22:10:42.487Z,93.44795316460689
2023-05-18T22:13:38.059Z,93.13193446307186
2023-05-18T22:16:33.662Z,92.46721535940036
2023-05-18T22:19:29.212Z,92.42435440272305
2023-05-18T22:22:30.555Z,92.08521340974804
2023-05-18T22:25:26.256Z,91.63618736924369
2023-05-18T22:28:21.809Z,91.18603791592012
2023-05-18T22:31:17.390Z,91.22895060530348
2023-05-18T22:34:12.946Z,91.08307889690387
2023-05-18T22:37:08.476Z,91.29562271117766
2023-05-18T22:40:06.116Z,91.9662790749313
2023-05-18T22:43:01.593Z,91.89898252066112
2023-05-18T22:45:58.245Z,92.8870197784487
2023-05-18T22:48:53.729Z,92.56838644359223
2023-05-18T22:51:53.299Z,91.8146524399315
2023-05-18T22:54:49.902Z,91.29217935762782
2023-05-18T22:57:45.378Z,94.66407620062488
2023-05-18T23:00:41.930Z,93.90496323541282
2023-05-18T23:03:37.544Z,93.27848416145328
2023-05-18T23:06:34.073Z,95.09584015552198
2023-05-18T23:09:31.685Z,96.9990170684036
2023-05-18T23:12:30.206Z,98.05722392531845
2023-05-18T23:15:26.802Z,98.76337781719123
2023-05-18T23:18:27.320Z,99.38200860671182
2023-05-18T23:21:26.852Z,98.72265718298594
2023-05-18T23:24:23.448Z,98.02927288331514
2023-05-18T23:27:19.971Z,97.5520320989311
2023-05-18T23:30:15.490Z,97.45783185643435
2023-05-18T23:33:14.271Z,97.95449829898239
2023-05-18T23:36:19.656Z,98.49532457159262
2023-05-18T23:39:17.198Z,98.0161132611791
2023-05-18T23:42:19.710Z,98.9938059471305
2023-05-18T23:45:16.272Z,99.26881599613554
2023-05-18T23:48:13.946Z,98.98651679726797
2023-05-18T23:51:16.454Z,98.64899689481555
2023-05-18T23:54:12.940Z,97.43349174719275
2023-05-18T23:57:09.486Z,97.71990074727479
